createdAt,value
2022-12-31T00:02:42.649Z,8.74
2022-12-31T00:05:44.449Z,8.83
2022-12-31T00:08:46.923Z,8.84
2022-12-31T00:11:48.682Z,8.81
2022-12-31T00:14:50.531Z,8.81
2022-12-31T00:17:52.341Z,8.75
2022-12-31T00:20:54.059Z,8.77
2022-12-31T00:23:56.528Z,8.82
2022-12-31T00:26:58.210Z,8.87
2022-12-31T00:30:04.432Z,8.83
2022-12-31T00:33:07.751Z,8.82
2022-12-31T00:36:18.069Z,8.81
2022-12-31T00:39:19.901Z,8.81
2022-12-31T00:42:21.760Z,8.83
2022-12-31T00:45:23.436Z,8.94
2022-12-31T00:48:25.244Z,9.05
2022-12-31T00:51:29.907Z,9.05
2022-12-31T00:54:31.740Z,9.12
2022-12-31T00:57:33.396Z,9.16
2022-12-31T01:00:36.646Z,9.25
2022-12-31T01:03:38.899Z,9.24
2022-12-31T01:06:41.913Z,9.27
2022-12-31T01:09:43.716Z,9.33
2022-12-31T01:12:45.427Z,9.33
2022-12-31T01:15:47.345Z,9.36
2022-12-31T01:18:50.221Z,9.37
2022-12-31T01:21:52.764Z,9.42
2022-12-31T01:24:54.670Z,9.40
2022-12-31T01:27:56.482Z,9.42
2022-12-31T01:30:58.707Z,9.43
2022-12-31T01:34:00.880Z,9.41
2022-12-31T01:37:02.714Z,9.41
2022-12-31T01:40:04.812Z,9.40
2022-12-31T01:43:19.007Z,9.41
2022-12-31T01:46:44.017Z,9.43
2022-12-31T01:49:57.532Z,9.41
2022-12-31T01:53:07.973Z,9.47
2022-12-31T01:56:10.283Z,9.51
2022-12-31T01:59:15.847Z,9.54
2022-12-31T02:02:18.101Z,9.55
2022-12-31T02:05:27.392Z,9.54
2022-12-31T02:08:29.056Z,9.57
2022-12-31T02:11:36.448Z,9.54
2022-12-31T02:14:42.643Z,9.56
2022-12-31T02:18:01.903Z,9.55
2022-12-31T02:21:19.695Z,9.53
2022-12-31T02:24:40.120Z,9.54
2022-12-31T02:27:51.404Z,9.49
2022-12-31T02:31:33.582Z,9.52
2022-12-31T02:34:50.968Z,9.52
2022-12-31T02:38:00.704Z,9.55
2022-12-31T02:41:02.646Z,9.54
2022-12-31T02:44:25.513Z,9.54
2022-12-31T02:48:02.652Z,9.58
2022-12-31T02:51:19.396Z,9.60
2022-12-31T02:54:39.789Z,9.65
2022-12-31T02:58:06.527Z,9.79
2022-12-31T03:01:27.033Z,9.86
2022-12-31T03:04:32.546Z,9.90
2022-12-31T03:07:34.568Z,9.95
2022-12-31T03:10:37.097Z,9.99
2022-12-31T03:13:38.621Z,10.05
2022-12-31T03:16:41.040Z,10.07
2022-12-31T03:20:01.746Z,10.07
2022-12-31T03:23:12.267Z,10.11
2022-12-31T03:26:14.008Z,10.13
2022-12-31T03:29:15.952Z,10.11
2022-12-31T03:32:17.767Z,10.12
2022-12-31T03:35:20.757Z,10.12
2022-12-31T03:38:22.865Z,10.08
2022-12-31T03:41:24.571Z,10.12
2022-12-31T03:44:27.443Z,10.10
2022-12-31T03:47:29.152Z,10.10
2022-12-31T03:50:31.324Z,10.13
2022-12-31T03:53:34.844Z,10.14
2022-12-31T03:56:37.800Z,10.18
2022-12-31T03:59:39.743Z,10.21
2022-12-31T04:02:42.227Z,10.23
2022-12-31T04:05:43.935Z,10.22
2022-12-31T04:08:45.561Z,10.23
2022-12-31T04:11:48.457Z,10.28
2022-12-31T04:14:50.098Z,10.32
2022-12-31T04:17:51.780Z,10.36
2022-12-31T04:20:54.760Z,10.43
2022-12-31T04:23:56.539Z,10.52
2022-12-31T04:27:03.617Z,10.55
2022-12-31T04:30:10.250Z,10.61
2022-12-31T04:33:12.052Z,10.66
2022-12-31T04:36:13.935Z,10.72
2022-12-31T04:39:15.609Z,10.72
2022-12-31T04:42:17.239Z,10.79
2022-12-31T04:45:18.893Z,10.83
2022-12-31T04:48:20.580Z,10.87
2022-12-31T04:51:23.571Z,11.01
2022-12-31T04:54:25.424Z,11.10
2022-12-31T04:57:27.197Z,11.16
2022-12-31T05:00:29.232Z,11.23
2022-12-31T05:03:31.554Z,11.17
2022-12-31T05:06:33.296Z,11.05
2022-12-31T05:09:35.907Z,10.91
2022-12-31T05:12:37.687Z,10.85
2022-12-31T05:15:40.138Z,10.76
2022-12-31T05:18:42.018Z,10.79
2022-12-31T05:21:44.190Z,10.74
2022-12-31T05:24:45.946Z,10.72
2022-12-31T05:27:49.703Z,10.71
2022-12-31T05:30:51.843Z,10.64
2022-12-31T05:33:53.831Z,10.63
2022-12-31T05:36:55.540Z,10.72
2022-12-31T05:39:58.381Z,10.71
2022-12-31T05:43:00.422Z,10.70
2022-12-31T05:46:08.414Z,10.72
2022-12-31T05:49:10.090Z,10.73
2022-12-31T05:52:11.858Z,10.77
2022-12-31T05:55:13.786Z,10.77
2022-12-31T05:58:17.441Z,10.78
2022-12-31T06:01:19.410Z,10.77
2022-12-31T06:04:21.290Z,10.74
2022-12-31T06:07:22.998Z,10.68
2022-12-31T06:10:24.665Z,10.62
2022-12-31T06:13:26.416Z,10.58
2022-12-31T06:16:28.368Z,10.56
2022-12-31T06:19:30.128Z,10.54
2022-12-31T06:22:31.877Z,10.53
2022-12-31T06:25:37.070Z,10.53
2022-12-31T06:28:39.462Z,10.52
2022-12-31T06:31:41.209Z,10.49
2022-12-31T06:34:43.032Z,10.46
2022-12-31T06:37:44.902Z,10.48
2022-12-31T06:40:46.655Z,10.51
2022-12-31T06:43:49.047Z,10.55
2022-12-31T06:46:51.090Z,10.55
2022-12-31T06:49:53.283Z,10.54
2022-12-31T06:52:55.264Z,10.51
2022-12-31T06:55:57.308Z,10.51
2022-12-31T06:58:59.673Z,10.50
2022-12-31T07:02:20.183Z,10.55
2022-12-31T07:05:47.615Z,10.53
2022-12-31T07:09:08.505Z,10.54
2022-12-31T07:12:43.726Z,10.59
2022-12-31T07:16:25.713Z,10.72
2022-12-31T07:19:33.730Z,10.80
2022-12-31T07:22:35.842Z,10.86
2022-12-31T07:25:41.230Z,10.77
2022-12-31T07:29:15.384Z,10.70
2022-12-31T07:33:00.032Z,10.75
2022-12-31T07:36:15.185Z,10.67
2022-12-31T07:39:39.305Z,10.64
2022-12-31T07:43:18.485Z,10.82
2022-12-31T07:46:38.770Z,10.93
2022-12-31T07:49:42.384Z,11.06
2022-12-31T07:52:45.189Z,11.02
2022-12-31T07:55:47.907Z,10.90
2022-12-31T07:58:52.758Z,10.80
2022-12-31T08:02:29.274Z,10.90
2022-12-31T08:05:56.045Z,10.82
2022-12-31T08:09:19.977Z,10.82
2022-12-31T08:12:23.348Z,10.84
2022-12-31T08:15:30.276Z,10.82
2022-12-31T08:18:32.671Z,10.80
2022-12-31T08:21:52.557Z,10.87
2022-12-31T08:25:13.139Z,10.85
2022-12-31T08:28:47.968Z,10.82
2022-12-31T08:32:04.121Z,10.75
2022-12-31T08:35:30.958Z,10.72
2022-12-31T08:38:40.394Z,10.70
2022-12-31T08:41:45.269Z,10.70
2022-12-31T08:45:14.568Z,10.68
2022-12-31T08:48:51.833Z,10.72
2022-12-31T08:51:53.956Z,10.74
2022-12-31T08:54:55.848Z,10.77
2022-12-31T08:58:34.831Z,10.81
2022-12-31T09:01:56.021Z,10.82
2022-12-31T09:05:26.697Z,10.80
2022-12-31T09:09:03.491Z,10.82
2022-12-31T09:12:32.490Z,10.94
2022-12-31T09:15:51.007Z,11.05
2022-12-31T09:18:52.850Z,11.13
2022-12-31T09:21:55.288Z,11.20
2022-12-31T09:24:57.368Z,11.30
2022-12-31T09:28:17.863Z,11.47
2022-12-31T09:31:32.669Z,11.75
2022-12-31T09:34:52.688Z,12.11
2022-12-31T09:38:32.279Z,12.31
2022-12-31T09:41:40.141Z,12.37
2022-12-31T09:45:20.128Z,12.38
2022-12-31T09:48:57.398Z,12.41
2022-12-31T09:52:37.821Z,12.40
2022-12-31T09:55:51.320Z,12.49
2022-12-31T09:59:11.233Z,12.62
2022-12-31T10:02:24.489Z,12.73
2022-12-31T10:05:50.807Z,12.75
2022-12-31T10:09:20.421Z,12.89
2022-12-31T10:13:00.147Z,12.97
2022-12-31T10:16:39.463Z,13.10
2022-12-31T10:20:15.771Z,13.09
2022-12-31T10:23:42.499Z,13.18
2022-12-31T10:27:04.743Z,13.45
2022-12-31T10:30:17.598Z,13.65
2022-12-31T10:34:13.849Z,13.64
2022-12-31T10:37:29.619Z,13.61
2022-12-31T10:40:53.568Z,13.66
2022-12-31T10:44:25.960Z,13.74
2022-12-31T10:47:33.482Z,13.91
2022-12-31T10:51:18.495Z,13.99
2022-12-31T10:54:34.962Z,13.98
2022-12-31T10:57:58.728Z,13.87
2022-12-31T11:01:20.200Z,13.96
2022-12-31T11:04:36.778Z,14.02
2022-12-31T11:07:56.726Z,14.02
2022-12-31T11:11:23.114Z,13.97
2022-12-31T11:14:52.233Z,14.11
2022-12-31T11:18:25.560Z,13.94
2022-12-31T11:21:45.920Z,13.87
2022-12-31T11:25:06.081Z,13.86
2022-12-31T11:28:32.164Z,13.81
2022-12-31T11:31:52.482Z,13.72
2022-12-31T11:35:34.065Z,13.84
2022-12-31T11:38:51.918Z,14.07
2022-12-31T11:42:27.086Z,14.21
2022-12-31T11:45:56.226Z,14.29
2022-12-31T11:49:13.010Z,14.34
2022-12-31T11:52:44.860Z,14.40
2022-12-31T11:56:05.194Z,14.36
2022-12-31T11:59:19.003Z,14.38
2022-12-31T12:02:36.193Z,14.10
2022-12-31T12:05:39.861Z,13.71
2022-12-31T12:08:42.685Z,13.53
2022-12-31T12:11:44.421Z,13.54
2022-12-31T12:14:52.363Z,13.66
2022-12-31T12:17:57.698Z,13.68
2022-12-31T12:21:18.882Z,13.63
2022-12-31T12:24:28.010Z,13.51
2022-12-31T12:27:32.358Z,13.53
2022-12-31T12:30:41.405Z,13.52
2022-12-31T12:33:44.950Z,13.62
2022-12-31T12:36:48.555Z,13.64
2022-12-31T12:40:05.229Z,13.84
2022-12-31T12:43:22.195Z,13.97
2022-12-31T12:46:32.848Z,14.08
2022-12-31T12:49:45.734Z,14.25
2022-12-31T12:53:34.536Z,14.25
2022-12-31T12:56:49.030Z,14.22
2022-12-31T13:00:19.651Z,14.24
2022-12-31T13:04:00.033Z,14.19
2022-12-31T13:07:40.558Z,14.17
2022-12-31T13:10:49.326Z,14.08
2022-12-31T13:14:05.767Z,13.99
2022-12-31T13:17:36.739Z,13.99
2022-12-31T13:20:47.606Z,13.97
2022-12-31T13:24:18.505Z,13.84
2022-12-31T13:27:33.339Z,13.89
2022-12-31T13:30:48.764Z,14.08
2022-12-31T13:34:02.521Z,14.18
2022-12-31T13:37:14.773Z,14.20
2022-12-31T13:40:27.933Z,14.18
2022-12-31T13:43:35.195Z,14.10
2022-12-31T13:47:07.064Z,14.10
2022-12-31T13:50:34.137Z,14.07
2022-12-31T13:54:13.577Z,14.03
2022-12-31T13:57:26.285Z,14.09
2022-12-31T14:00:44.875Z,14.11
2022-12-31T14:03:59.277Z,14.11
2022-12-31T14:07:06.029Z,14.13
2022-12-31T14:10:13.769Z,14.15
2022-12-31T14:13:39.714Z,14.21
2022-12-31T14:17:22.039Z,14.30
2022-12-31T14:20:36.705Z,14.42
2022-12-31T14:24:15.944Z,14.47
2022-12-31T14:27:22.808Z,14.36
2022-12-31T14:30:36.843Z,14.40
2022-12-31T14:34:15.859Z,14.33
2022-12-31T14:37:23.551Z,14.15
2022-12-31T14:40:42.029Z,14.10
2022-12-31T14:44:25.017Z,14.10
2022-12-31T14:47:36.907Z,14.09
2022-12-31T14:50:39.023Z,14.14
2022-12-31T14:53:51.808Z,14.12
2022-12-31T14:56:54.026Z,14.03
2022-12-31T14:59:57.935Z,14.04
2022-12-31T15:03:28.241Z,14.02
2022-12-31T15:06:41.986Z,14.08
2022-12-31T15:10:15.544Z,14.05
2022-12-31T15:13:51.223Z,14.05
2022-12-31T15:16:55.402Z,14.03
2022-12-31T15:20:17.992Z,14.08
2022-12-31T15:23:31.286Z,14.29
2022-12-31T15:26:35.158Z,14.46
2022-12-31T15:29:44.602Z,14.33
2022-12-31T15:32:48.447Z,14.32
2022-12-31T15:35:55.944Z,14.30
2022-12-31T15:39:10.007Z,14.36
2022-12-31T15:43:07.472Z,14.35
2022-12-31T15:46:31.824Z,14.36
2022-12-31T15:49:40.839Z,14.28
2022-12-31T15:52:47.862Z,14.32
2022-12-31T15:55:54.438Z,14.30
2022-12-31T15:58:59.598Z,14.24
2022-12-31T16:02:01.739Z,14.36
2022-12-31T16:05:03.885Z,14.38
2022-12-31T16:08:06.610Z,14.25
2022-12-31T16:11:10.267Z,14.05
2022-12-31T16:14:25.029Z,13.98
2022-12-31T16:17:28.423Z,13.88
2022-12-31T16:20:32.122Z,13.77
2022-12-31T16:23:38.792Z,13.73
2022-12-31T16:26:48.320Z,13.63
2022-12-31T16:29:57.933Z,13.58
2022-12-31T16:33:06.874Z,13.58
2022-12-31T16:36:28.836Z,13.88
2022-12-31T16:39:33.546Z,13.79
2022-12-31T16:42:44.099Z,13.67
2022-12-31T16:45:46.235Z,13.77
2022-12-31T16:49:15.896Z,13.83
2022-12-31T16:52:30.493Z,13.93
2022-12-31T16:55:34.441Z,13.99
2022-12-31T16:58:46.827Z,13.99
2022-12-31T17:01:49.628Z,13.89
2022-12-31T17:04:56.550Z,13.98
2022-12-31T17:08:15.426Z,14.11
2022-12-31T17:11:23.399Z,14.15
2022-12-31T17:14:28.782Z,14.11
2022-12-31T17:17:38.668Z,14.08
2022-12-31T17:20:40.366Z,14.11
2022-12-31T17:23:45.075Z,14.08
2022-12-31T17:26:46.877Z,14.05
2022-12-31T17:29:48.905Z,13.96
2022-12-31T17:32:51.864Z,13.77
2022-12-31T17:36:20.991Z,13.67
2022-12-31T17:39:23.882Z,13.54
2022-12-31T17:42:38.107Z,13.43
2022-12-31T17:45:42.817Z,13.53
2022-12-31T17:48:49.469Z,13.45
2022-12-31T17:51:51.264Z,13.38
2022-12-31T17:54:52.937Z,13.40
2022-12-31T17:57:56.978Z,13.43
2022-12-31T18:00:59.446Z,13.37
2022-12-31T18:04:01.185Z,13.22
2022-12-31T18:07:02.846Z,13.11
2022-12-31T18:10:04.689Z,13.17
2022-12-31T18:13:10.317Z,13.09
2022-12-31T18:16:12.259Z,13.09
2022-12-31T18:19:37.770Z,13.05
2022-12-31T18:22:38.559Z,13.09
2022-12-31T18:28:40.800Z,13.18
2022-12-31T18:31:46.000Z,13.23
2022-12-31T18:34:48.439Z,13.33
2022-12-31T18:37:50.050Z,13.34
2022-12-31T18:40:59.800Z,13.31
2022-12-31T18:44:01.469Z,13.25
2022-12-31T18:47:03.122Z,13.14
2022-12-31T18:50:06.457Z,13.01
2022-12-31T18:53:16.427Z,13.07
2022-12-31T18:56:20.737Z,13.12
2022-12-31T18:59:22.581Z,13.14
2022-12-31T19:02:24.143Z,13.05
2022-12-31T19:05:29.109Z,13.06
2022-12-31T19:08:32.475Z,13.14
2022-12-31T19:11:35.816Z,13.19
2022-12-31T19:14:37.450Z,13.23
2022-12-31T19:17:39.007Z,13.27
2022-12-31T19:20:41.090Z,13.20
2022-12-31T19:23:42.928Z,13.18
2022-12-31T19:26:44.783Z,13.13
2022-12-31T19:29:46.595Z,13.21
2022-12-31T19:32:48.394Z,13.31
2022-12-31T19:35:50.372Z,13.39
2022-12-31T19:38:52.142Z,13.30
2022-12-31T19:41:58.733Z,13.12
2022-12-31T19:45:00.837Z,13.03
2022-12-31T19:48:02.483Z,12.93
2022-12-31T19:51:09.825Z,13.01
2022-12-31T19:54:14.528Z,13.02
2022-12-31T19:57:16.490Z,13.02
2022-12-31T20:00:20.105Z,13.05
2022-12-31T20:03:21.932Z,13.34
2022-12-31T20:06:23.615Z,13.29
2022-12-31T20:09:25.315Z,13.12
2022-12-31T20:12:28.342Z,13.07
2022-12-31T20:15:30.645Z,13.03
2022-12-31T20:18:32.204Z,13.07
2022-12-31T20:21:34.096Z,13.03
2022-12-31T20:24:35.899Z,12.97
2022-12-31T20:27:38.572Z,12.95
2022-12-31T20:30:40.435Z,13.03
2022-12-31T20:33:42.768Z,13.11
2022-12-31T20:36:44.413Z,13.09
2022-12-31T20:39:45.984Z,13.01
2022-12-31T20:42:47.727Z,12.97
2022-12-31T20:45:50.463Z,13.04
2022-12-31T20:48:54.249Z,13.09
2022-12-31T20:51:55.906Z,13.02
2022-12-31T20:54:57.772Z,12.96
2022-12-31T20:58:00.633Z,12.98
2022-12-31T21:01:06.648Z,12.93
2022-12-31T21:04:08.556Z,13.01
2022-12-31T21:07:10.339Z,13.00
2022-12-31T21:10:11.871Z,13.05
2022-12-31T21:13:13.494Z,13.10
2022-12-31T21:16:15.331Z,13.21
2022-12-31T21:19:17.126Z,13.28
2022-12-31T21:22:19.286Z,13.28
2022-12-31T21:25:20.921Z,13.24
2022-12-31T21:28:22.699Z,13.39
2022-12-31T21:31:24.473Z,13.50
2022-12-31T21:34:26.321Z,13.44
2022-12-31T21:37:57.433Z,13.46
2022-12-31T21:40:49.665Z,13.51
2022-12-31T21:43:51.390Z,13.61
2022-12-31T21:47:41.203Z,13.69
2022-12-31T21:50:43.057Z,13.73
2022-12-31T21:53:44.775Z,13.80
2022-12-31T21:56:46.345Z,13.89
2022-12-31T22:00:39.829Z,13.91
2022-12-31T22:03:28.577Z,13.94
2022-12-31T22:06:30.986Z,13.92
2022-12-31T22:09:33.007Z,14.00
2022-12-31T22:12:34.602Z,14.05
2022-12-31T22:15:36.774Z,14.09
2022-12-31T22:18:40.565Z,14.13
2022-12-31T22:21:42.225Z,14.03
2022-12-31T22:24:44.244Z,13.97
2022-12-31T22:28:11.639Z,13.93
2022-12-31T22:31:18.059Z,13.95
2022-12-31T22:34:19.659Z,13.84
2022-12-31T22:37:54.921Z,13.97
2022-12-31T22:40:42.803Z,13.97
2022-12-31T22:43:47.784Z,14.10
2022-12-31T22:46:49.646Z,14.13
2022-12-31T22:49:51.181Z,14.05
2022-12-31T22:52:52.894Z,14.15
2022-12-31T22:55:55.385Z,14.01
2022-12-31T22:58:57.038Z,13.88
2022-12-31T23:01:58.619Z,13.87
2022-12-31T23:05:14.808Z,13.96
2022-12-31T23:08:23.113Z,14.06
2022-12-31T23:11:25.620Z,13.96
2022-12-31T23:14:45.932Z,13.88
2022-12-31T23:18:06.249Z,13.78
2022-12-31T23:21:29.075Z,13.78
2022-12-31T23:24:30.755Z,13.76
2022-12-31T23:27:32.523Z,13.84
2022-12-31T23:30:34.565Z,13.91
2022-12-31T23:33:36.230Z,13.95
2022-12-31T23:36:37.901Z,14.09
2022-12-31T23:39:41.511Z,14.31
2022-12-31T23:42:43.159Z,14.29
2022-12-31T23:45:44.650Z,14.31
2022-12-31T23:48:46.396Z,14.33
2022-12-31T23:51:48.142Z,14.28
2022-12-31T23:54:50.095Z,14.24
2022-12-31T23:57:51.687Z,14.21
